SBI7520 FSIA-OOMS
Flight info
| Callsign | SBI7520 |
|---|---|
| Flight time | 4h 12m |
| Altitude | 37000 |
| Route | FSIA N0448F370 UDLET UM314 SUHIL R401 DEDSO GIVNO MOBAB GISKA RADAX OOMS |
| Aircraft | B738/M-SDGIWZ/S |
Departure
| Time | 2026-04-17 22:20 |
|---|---|
| Airport | Seychelles International Airport (FSIA) |
Arrival
| Time | 2026-04-18 02:33 |
|---|---|
| Airport | Muscat International Airport (OOMS) |
| Time | Latitude | Longitude | Altitude | Speed | Heading |
|---|---|---|---|---|---|
| 2026-04-17 22:09 | -4.66818 | 55.50859 | 18 ft | 0 kts | 210° |
| 2026-04-17 22:18 | -4.66810 | 55.50864 | 18 ft | 3 kts | 210° |
| 2026-04-17 22:18 | -4.66786 | 55.50885 | 18 ft | 5 kts | 273° |
| 2026-04-17 22:19 | -4.66790 | 55.50899 | 18 ft | 7 kts | 289° |
| 2026-04-17 22:19 | -4.66713 | 55.50866 | 18 ft | 20 kts | 41° |
| 2026-04-17 22:19 | -4.66753 | 55.50999 | 18 ft | 21 kts | 109° |
| 2026-04-17 22:19 | -4.66697 | 55.51118 | 18 ft | 23 kts | 101° |
| 2026-04-17 22:20 | -4.66874 | 55.51385 | 18 ft | 80 kts | 125° |
| 2026-04-17 22:20 | -4.67329 | 55.52037 | 18 ft | 144 kts | 125° |
| 2026-04-17 22:20 | -4.68000 | 55.52993 | 121 ft | 184 kts | 126° |
| 2026-04-17 22:20 | -4.68744 | 55.54079 | 690 ft | 192 kts | 124° |
| 2026-04-17 22:21 | -4.69434 | 55.55167 | 1548 ft | 184 kts | 123° |
| 2026-04-17 22:21 | -4.69951 | 55.56340 | 2061 ft | 190 kts | 97° |
| 2026-04-17 22:21 | -4.69603 | 55.57610 | 2500 ft | 198 kts | 48° |
| 2026-04-17 22:21 | -4.68485 | 55.58361 | 3139 ft | 197 kts | 16° |
| 2026-04-17 22:22 | -4.67080 | 55.58395 | 3424 ft | 215 kts | 339° |
| 2026-04-17 22:22 | -4.65860 | 55.57505 | 3737 ft | 227 kts | 310° |
| 2026-04-17 22:22 | -4.64708 | 55.56337 | 4102 ft | 245 kts | 321° |
| 2026-04-17 22:22 | -4.63293 | 55.55333 | 4583 ft | 256 kts | 322° |
| 2026-04-17 22:23 | -4.61884 | 55.54239 | 5246 ft | 263 kts | 320° |
| 2026-04-17 22:23 | -4.60407 | 55.53050 | 5769 ft | 278 kts | 319° |
| 2026-04-17 22:23 | -4.58861 | 55.51797 | 5864 ft | 286 kts | 319° |
| 2026-04-17 22:23 | -4.57353 | 55.50570 | 5886 ft | 280 kts | 319° |
| 2026-04-17 22:24 | -4.55839 | 55.49334 | 5886 ft | 280 kts | 319° |
| 2026-04-17 22:24 | -4.54329 | 55.48109 | 5884 ft | 280 kts | 322° |
| 2026-04-17 22:24 | -4.52594 | 55.47216 | 5893 ft | 285 kts | 345° |
| 2026-04-17 22:24 | -4.50548 | 55.47036 | 6393 ft | 298 kts | 359° |
| 2026-04-17 22:25 | -4.48515 | 55.47012 | 7282 ft | 295 kts | 357° |
| 2026-04-17 22:25 | -4.46478 | 55.46952 | 8046 ft | 296 kts | 356° |
| 2026-04-17 22:25 | -4.44427 | 55.46902 | 8791 ft | 297 kts | 356° |
| 2026-04-17 22:25 | -4.42363 | 55.46858 | 9477 ft | 299 kts | 356° |
| 2026-04-17 22:26 | -4.40275 | 55.46813 | 10124 ft | 303 kts | 356° |
| 2026-04-17 22:26 | -4.38113 | 55.46765 | 10259 ft | 324 kts | 356° |
| 2026-04-17 22:26 | -4.35776 | 55.46715 | 10425 ft | 343 kts | 356° |
| 2026-04-17 22:26 | -4.33335 | 55.46665 | 10611 ft | 360 kts | 357° |
| 2026-04-17 22:27 | -4.30821 | 55.46614 | 11252 ft | 361 kts | 356° |
| 2026-04-17 22:27 | -4.28294 | 55.46562 | 11683 ft | 368 kts | 356° |
| 2026-04-17 22:27 | -4.25727 | 55.46510 | 12349 ft | 367 kts | 356° |
| 2026-04-17 22:27 | -4.23191 | 55.46458 | 12845 ft | 371 kts | 356° |
| 2026-04-17 22:28 | -4.20587 | 55.46404 | 13428 ft | 372 kts | 356° |
| 2026-04-17 22:28 | -4.18012 | 55.46351 | 13954 ft | 374 kts | 356° |
| 2026-04-17 22:28 | -4.15411 | 55.46321 | 14458 ft | 376 kts | 358° |
| 2026-04-17 22:28 | -4.12779 | 55.46332 | 14964 ft | 378 kts | 358° |
| 2026-04-17 22:29 | -4.10173 | 55.46340 | 15436 ft | 380 kts | 358° |
| 2026-04-17 22:29 | -4.07489 | 55.46341 | 15912 ft | 382 kts | 358° |
| 2026-04-17 22:29 | -4.04839 | 55.46342 | 16363 ft | 383 kts | 358° |
| 2026-04-17 22:29 | -4.02184 | 55.46343 | 16801 ft | 385 kts | 358° |
| 2026-04-17 22:30 | -3.99469 | 55.46344 | 17234 ft | 387 kts | 358° |
| 2026-04-17 22:30 | -3.96781 | 55.46345 | 17646 ft | 388 kts | 358° |
| 2026-04-17 22:30 | -3.94073 | 55.46346 | 18050 ft | 390 kts | 358° |
| 2026-04-17 22:30 | -3.91375 | 55.46346 | 18434 ft | 392 kts | 358° |
| 2026-04-17 22:31 | -3.88652 | 55.46347 | 18810 ft | 393 kts | 358° |
| 2026-04-17 22:31 | -3.85914 | 55.46348 | 19184 ft | 395 kts | 358° |
| 2026-04-17 22:31 | -3.83132 | 55.46349 | 19538 ft | 397 kts | 358° |
| 2026-04-17 22:31 | -3.80362 | 55.46349 | 19901 ft | 398 kts | 358° |
| 2026-04-17 22:32 | -3.77580 | 55.46350 | 20232 ft | 400 kts | 358° |
| 2026-04-17 22:32 | -3.74812 | 55.46351 | 20566 ft | 401 kts | 358° |
| 2026-04-17 22:32 | -3.72038 | 55.46352 | 20885 ft | 402 kts | 358° |
| 2026-04-17 22:32 | -3.69236 | 55.46352 | 21196 ft | 404 kts | 358° |
| 2026-04-17 22:33 | -3.66388 | 55.46353 | 21498 ft | 405 kts | 358° |
| 2026-04-17 22:33 | -3.63570 | 55.46353 | 21788 ft | 407 kts | 359° |
| 2026-04-17 22:33 | -3.60748 | 55.46354 | 22090 ft | 408 kts | 359° |
| 2026-04-17 22:33 | -3.57916 | 55.46354 | 22355 ft | 410 kts | 359° |
| 2026-04-17 22:34 | -3.55023 | 55.46355 | 22621 ft | 411 kts | 359° |
| 2026-04-17 22:34 | -3.52160 | 55.46355 | 22877 ft | 413 kts | 359° |
| 2026-04-17 22:34 | -3.49292 | 55.46356 | 23182 ft | 413 kts | 359° |
| 2026-04-17 22:34 | -3.46423 | 55.46357 | 23427 ft | 414 kts | 359° |
| 2026-04-17 22:35 | -3.43522 | 55.46357 | 23686 ft | 415 kts | 359° |
| 2026-04-17 22:35 | -3.40647 | 55.46358 | 23920 ft | 416 kts | 359° |
| 2026-04-17 22:35 | -3.37724 | 55.46359 | 24164 ft | 417 kts | 359° |
| 2026-04-17 22:35 | -3.34796 | 55.46359 | 24384 ft | 419 kts | 359° |
| 2026-04-17 22:36 | -3.31891 | 55.46360 | 24591 ft | 420 kts | 359° |
| 2026-04-17 22:36 | -3.28974 | 55.46360 | 24825 ft | 421 kts | 359° |
| 2026-04-17 22:36 | -3.26037 | 55.46361 | 25019 ft | 423 kts | 359° |
| 2026-04-17 22:36 | -3.23068 | 55.46361 | 25220 ft | 424 kts | 359° |
| 2026-04-17 22:37 | -3.20130 | 55.46362 | 25427 ft | 425 kts | 359° |
| 2026-04-17 22:37 | -3.17192 | 55.46362 | 25621 ft | 426 kts | 359° |
| 2026-04-17 22:37 | -3.14189 | 55.46363 | 25799 ft | 427 kts | 359° |
| 2026-04-17 22:37 | -3.11201 | 55.46364 | 25982 ft | 428 kts | 359° |
| 2026-04-17 22:38 | -3.08220 | 55.46364 | 26162 ft | 429 kts | 359° |
| 2026-04-17 22:38 | -3.05232 | 55.46365 | 26342 ft | 430 kts | 359° |
| 2026-04-17 22:38 | -3.02272 | 55.46365 | 26504 ft | 431 kts | 360° |
| 2026-04-17 22:38 | -2.99269 | 55.46366 | 26679 ft | 432 kts | 360° |
| 2026-04-17 22:39 | -2.96240 | 55.46366 | 26841 ft | 433 kts | 360° |
| 2026-04-17 22:39 | -2.93223 | 55.46367 | 27009 ft | 434 kts | 0° |
| 2026-04-17 22:39 | -2.87162 | 55.46368 | 27287 ft | 436 kts | 0° |
| 2026-04-17 22:40 | -2.84113 | 55.46370 | 27468 ft | 437 kts | 0° |
| 2026-04-17 22:40 | -2.81053 | 55.46371 | 27597 ft | 438 kts | 0° |
| 2026-04-17 22:40 | -2.78011 | 55.46372 | 27737 ft | 439 kts | 0° |
| 2026-04-17 22:40 | -2.74953 | 55.46372 | 27891 ft | 439 kts | 0° |
| 2026-04-17 22:41 | -2.71916 | 55.46373 | 27997 ft | 441 kts | 0° |
| 2026-04-17 22:41 | -2.68834 | 55.46374 | 28141 ft | 441 kts | 0° |
| 2026-04-17 22:41 | -2.65754 | 55.46374 | 28268 ft | 442 kts | 0° |
| 2026-04-17 22:41 | -2.62669 | 55.46375 | 28379 ft | 443 kts | 0° |
| 2026-04-17 22:42 | -2.59578 | 55.46375 | 28514 ft | 444 kts | 0° |
| 2026-04-17 22:42 | -2.56486 | 55.46376 | 28611 ft | 445 kts | 0° |
| 2026-04-17 22:42 | -2.53373 | 55.46377 | 28749 ft | 445 kts | 0° |
| 2026-04-17 22:42 | -2.50274 | 55.46377 | 28850 ft | 446 kts | 0° |
| 2026-04-17 22:43 | -2.47166 | 55.46378 | 28958 ft | 447 kts | 0° |
| 2026-04-17 22:43 | -2.44049 | 55.46378 | 29051 ft | 448 kts | 0° |
| 2026-04-17 22:43 | -2.40902 | 55.46379 | 29156 ft | 449 kts | 0° |
| 2026-04-17 22:43 | -2.37811 | 55.46380 | 29262 ft | 449 kts | 0° |
| 2026-04-17 22:44 | -2.31516 | 55.46381 | 29537 ft | 449 kts | 1° |
| 2026-04-17 22:44 | -2.28423 | 55.46381 | 29719 ft | 447 kts | 1° |
| 2026-04-17 22:44 | -2.25292 | 55.46382 | 29847 ft | 447 kts | 1° |
| 2026-04-17 22:45 | -2.22182 | 55.46382 | 29967 ft | 447 kts | 1° |
| 2026-04-17 22:45 | -2.19075 | 55.46383 | 30128 ft | 446 kts | 1° |
| 2026-04-17 22:45 | -2.15946 | 55.46384 | 30257 ft | 446 kts | 1° |
| 2026-04-17 22:45 | -2.12850 | 55.46384 | 30359 ft | 446 kts | 1° |
| 2026-04-17 22:46 | -2.09749 | 55.46385 | 30513 ft | 445 kts | 1° |
| 2026-04-17 22:46 | -2.06635 | 55.46386 | 30605 ft | 446 kts | 1° |
| 2026-04-17 22:46 | -2.03538 | 55.46386 | 30749 ft | 445 kts | 1° |
| 2026-04-17 22:46 | -2.00451 | 55.46387 | 30879 ft | 444 kts | 1° |
| 2026-04-17 22:47 | -1.94237 | 55.46388 | 31087 ft | 445 kts | 1° |
| 2026-04-17 22:47 | -1.91159 | 55.46389 | 31207 ft | 444 kts | 1° |
| 2026-04-17 22:47 | -1.88037 | 55.46389 | 31315 ft | 444 kts | 1° |
| 2026-04-17 22:48 | -1.84977 | 55.46390 | 31455 ft | 443 kts | 1° |
| 2026-04-17 22:48 | -1.81887 | 55.46391 | 31567 ft | 443 kts | 1° |
| 2026-04-17 22:48 | -1.75687 | 55.46393 | 31803 ft | 442 kts | 1° |
| 2026-04-17 22:49 | -1.72642 | 55.46394 | 31909 ft | 442 kts | 1° |
| 2026-04-17 22:49 | -1.69554 | 55.46394 | 31982 ft | 443 kts | 1° |
| 2026-04-17 22:49 | -1.66480 | 55.46395 | 32092 ft | 443 kts | 1° |
| 2026-04-17 22:49 | -1.63393 | 55.46395 | 32204 ft | 442 kts | 1° |
| 2026-04-17 22:50 | -1.60332 | 55.46396 | 32316 ft | 442 kts | 1° |
| 2026-04-17 22:50 | -1.57273 | 55.46397 | 32388 ft | 442 kts | 1° |
| 2026-04-17 22:50 | -1.54202 | 55.46397 | 32501 ft | 442 kts | 1° |
| 2026-04-17 22:50 | -1.51106 | 55.46398 | 32608 ft | 442 kts | 1° |
| 2026-04-17 22:51 | -1.44982 | 55.46399 | 32783 ft | 441 kts | 1° |
| 2026-04-17 22:51 | -1.41939 | 55.46400 | 32885 ft | 441 kts | 1° |
| 2026-04-17 22:51 | -1.38852 | 55.46400 | 32954 ft | 442 kts | 1° |
| 2026-04-17 22:52 | -1.32736 | 55.46401 | 33142 ft | 441 kts | 1° |
| 2026-04-17 22:52 | -1.26623 | 55.46403 | 33293 ft | 441 kts | 1° |
| 2026-04-17 22:53 | -1.20459 | 55.46404 | 33482 ft | 440 kts | 1° |
| 2026-04-17 22:53 | -1.14358 | 55.46405 | 33648 ft | 440 kts | 1° |
| 2026-04-17 22:54 | -1.08265 | 55.46406 | 33804 ft | 439 kts | 1° |
| 2026-04-17 22:54 | -1.02163 | 55.46407 | 33912 ft | 440 kts | 0° |
| 2026-04-17 22:55 | -0.96025 | 55.46404 | 34012 ft | 441 kts | 359° |
| 2026-04-17 22:55 | -0.89930 | 55.46007 | 34116 ft | 442 kts | 355° |
| 2026-04-17 22:56 | -0.83824 | 55.45514 | 34222 ft | 443 kts | 356° |
| 2026-04-17 22:56 | -0.77684 | 55.45063 | 34335 ft | 443 kts | 356° |
| 2026-04-17 22:57 | -0.71523 | 55.44607 | 34445 ft | 444 kts | 356° |
| 2026-04-17 22:57 | -0.65367 | 55.44156 | 34588 ft | 443 kts | 356° |
| 2026-04-17 22:58 | -0.59216 | 55.43706 | 34711 ft | 443 kts | 356° |
| 2026-04-17 22:58 | -0.53120 | 55.43262 | 34836 ft | 443 kts | 356° |
| 2026-04-17 22:59 | -0.46962 | 55.42814 | 34954 ft | 442 kts | 356° |
| 2026-04-17 22:59 | -0.40849 | 55.42369 | 35066 ft | 442 kts | 356° |
| 2026-04-17 23:00 | -0.34747 | 55.41925 | 35182 ft | 442 kts | 356° |
| 2026-04-17 23:00 | -0.28631 | 55.41481 | 35297 ft | 441 kts | 356° |
| 2026-04-17 23:01 | -0.22498 | 55.41035 | 35404 ft | 441 kts | 356° |
| 2026-04-17 23:01 | -0.16402 | 55.40591 | 35519 ft | 440 kts | 356° |
| 2026-04-17 23:02 | -0.10300 | 55.40148 | 35630 ft | 440 kts | 356° |
| 2026-04-17 23:02 | -0.04221 | 55.39706 | 35736 ft | 439 kts | 356° |
| 2026-04-17 23:03 | 0.01845 | 55.39265 | 35836 ft | 439 kts | 356° |
| 2026-04-17 23:03 | 0.07947 | 55.38821 | 35942 ft | 438 kts | 356° |
| 2026-04-17 23:04 | 0.13999 | 55.38382 | 36046 ft | 438 kts | 356° |
| 2026-04-17 23:04 | 0.20084 | 55.37940 | 36148 ft | 437 kts | 356° |
| 2026-04-17 23:05 | 0.26112 | 55.37502 | 36249 ft | 436 kts | 356° |
| 2026-04-17 23:05 | 0.32155 | 55.37063 | 36349 ft | 436 kts | 356° |
| 2026-04-17 23:06 | 0.38186 | 55.36625 | 36449 ft | 435 kts | 356° |
| 2026-04-17 23:06 | 0.44202 | 55.36188 | 36549 ft | 434 kts | 356° |
| 2026-04-17 23:07 | 0.50200 | 55.35752 | 36650 ft | 433 kts | 356° |
| 2026-04-17 23:07 | 0.56197 | 55.35316 | 36751 ft | 432 kts | 356° |
| 2026-04-17 23:08 | 0.59220 | 55.35096 | 36857 ft | 430 kts | 356° |
| 2026-04-17 23:08 | 0.62198 | 55.34879 | 36857 ft | 431 kts | 356° |
| 2026-04-17 23:08 | 0.68207 | 55.34443 | 36858 ft | 433 kts | 356° |
| 2026-04-17 23:09 | 0.74236 | 55.34005 | 36858 ft | 434 kts | 356° |
| 2026-04-17 23:09 | 0.80232 | 55.33569 | 36858 ft | 435 kts | 356° |
| 2026-04-17 23:10 | 0.86288 | 55.33129 | 36857 ft | 436 kts | 356° |
| 2026-04-17 23:10 | 0.92373 | 55.32686 | 36857 ft | 437 kts | 356° |
| 2026-04-17 23:11 | 0.98448 | 55.32245 | 36858 ft | 438 kts | 356° |
| 2026-04-17 23:11 | 1.04535 | 55.31802 | 36857 ft | 438 kts | 356° |
| 2026-04-17 23:12 | 1.10627 | 55.31352 | 36857 ft | 439 kts | 357° |
| 2026-04-17 23:12 | 1.16717 | 55.30880 | 36858 ft | 440 kts | 357° |
| 2026-04-17 23:13 | 1.22819 | 55.30431 | 36858 ft | 441 kts | 357° |
| 2026-04-17 23:13 | 1.28907 | 55.29971 | 36859 ft | 441 kts | 357° |
| 2026-04-17 23:14 | 1.35052 | 55.29529 | 36857 ft | 441 kts | 357° |
| 2026-04-17 23:14 | 1.41156 | 55.29053 | 36857 ft | 441 kts | 357° |
| 2026-04-17 23:15 | 1.47261 | 55.28607 | 36858 ft | 441 kts | 358° |
| 2026-04-17 23:15 | 1.53383 | 55.28218 | 36858 ft | 441 kts | 358° |
| 2026-04-17 23:16 | 1.59485 | 55.27837 | 36858 ft | 441 kts | 358° |
| 2026-04-17 23:16 | 1.65616 | 55.27421 | 36857 ft | 441 kts | 357° |
| 2026-04-17 23:17 | 1.71742 | 55.26971 | 36859 ft | 441 kts | 357° |
| 2026-04-17 23:17 | 1.77828 | 55.26528 | 36857 ft | 441 kts | 357° |
| 2026-04-17 23:18 | 1.83947 | 55.26094 | 36857 ft | 441 kts | 357° |
| 2026-04-17 23:18 | 1.90078 | 55.25645 | 36858 ft | 441 kts | 357° |
| 2026-04-17 23:19 | 1.96158 | 55.25199 | 36857 ft | 441 kts | 356° |
| 2026-04-17 23:19 | 2.02256 | 55.24675 | 36857 ft | 440 kts | 357° |
| 2026-04-17 23:20 | 2.08381 | 55.24258 | 36859 ft | 441 kts | 358° |
| 2026-04-17 23:20 | 2.14468 | 55.23861 | 36856 ft | 441 kts | 358° |
| 2026-04-17 23:21 | 2.20603 | 55.23436 | 36856 ft | 441 kts | 357° |
| 2026-04-17 23:21 | 2.26691 | 55.22992 | 36857 ft | 441 kts | 357° |
| 2026-04-17 23:22 | 2.32783 | 55.22552 | 36858 ft | 441 kts | 357° |
| 2026-04-17 23:22 | 2.38907 | 55.22092 | 36858 ft | 441 kts | 357° |
| 2026-04-17 23:23 | 2.45029 | 55.21646 | 36857 ft | 441 kts | 358° |
| 2026-04-17 23:23 | 2.51140 | 55.21206 | 36858 ft | 440 kts | 357° |
| 2026-04-17 23:24 | 2.57209 | 55.20753 | 36859 ft | 441 kts | 358° |
| 2026-04-17 23:24 | 2.63326 | 55.20309 | 36858 ft | 441 kts | 357° |
| 2026-04-17 23:25 | 2.69447 | 55.19868 | 36858 ft | 440 kts | 358° |
| 2026-04-17 23:25 | 2.75524 | 55.19401 | 36857 ft | 440 kts | 356° |
| 2026-04-17 23:26 | 2.81610 | 55.18883 | 36857 ft | 439 kts | 357° |
| 2026-04-17 23:26 | 2.87661 | 55.18424 | 36858 ft | 438 kts | 357° |
| 2026-04-17 23:27 | 2.93749 | 55.17965 | 36857 ft | 439 kts | 357° |
| 2026-04-17 23:27 | 2.99836 | 55.17497 | 36857 ft | 440 kts | 358° |
| 2026-04-17 23:28 | 3.05951 | 55.17088 | 36858 ft | 442 kts | 358° |
| 2026-04-17 23:28 | 3.12052 | 55.16658 | 36858 ft | 444 kts | 358° |
| 2026-04-17 23:29 | 3.18243 | 55.16209 | 36858 ft | 445 kts | 358° |
| 2026-04-17 23:29 | 3.24420 | 55.15762 | 36858 ft | 447 kts | 358° |
| 2026-04-17 23:30 | 3.30598 | 55.15313 | 36858 ft | 448 kts | 358° |
| 2026-04-17 23:30 | 3.36799 | 55.14861 | 36858 ft | 450 kts | 357° |
| 2026-04-17 23:31 | 3.43066 | 55.14403 | 36858 ft | 451 kts | 357° |
| 2026-04-17 23:31 | 3.49277 | 55.13949 | 36858 ft | 451 kts | 357° |
| 2026-04-17 23:32 | 3.55531 | 55.13492 | 36858 ft | 451 kts | 357° |
| 2026-04-17 23:32 | 3.61798 | 55.13034 | 36858 ft | 451 kts | 357° |
| 2026-04-17 23:33 | 3.68056 | 55.12576 | 36858 ft | 452 kts | 357° |
| 2026-04-17 23:33 | 3.74292 | 55.12120 | 36857 ft | 452 kts | 357° |
| 2026-04-17 23:34 | 3.80543 | 55.11663 | 36858 ft | 453 kts | 357° |
| 2026-04-17 23:34 | 3.86840 | 55.11202 | 36858 ft | 453 kts | 357° |
| 2026-04-17 23:35 | 3.93115 | 55.10743 | 36858 ft | 453 kts | 356° |
| 2026-04-17 23:35 | 3.99400 | 55.10283 | 36858 ft | 453 kts | 356° |
| 2026-04-17 23:36 | 4.05649 | 55.09826 | 36857 ft | 454 kts | 356° |
| 2026-04-17 23:36 | 4.11959 | 55.09364 | 36858 ft | 453 kts | 356° |
| 2026-04-17 23:37 | 4.18076 | 55.08917 | 36857 ft | 453 kts | 356° |
| 2026-04-17 23:37 | 4.24362 | 55.08456 | 36858 ft | 453 kts | 356° |
| 2026-04-17 23:38 | 4.30626 | 55.07998 | 36858 ft | 453 kts | 356° |
| 2026-04-17 23:38 | 4.36877 | 55.07541 | 36858 ft | 453 kts | 356° |
| 2026-04-17 23:39 | 4.43155 | 55.07081 | 36857 ft | 453 kts | 356° |
| 2026-04-17 23:39 | 4.49430 | 55.06622 | 36857 ft | 452 kts | 356° |
| 2026-04-17 23:40 | 4.55690 | 55.06163 | 36858 ft | 452 kts | 356° |
| 2026-04-17 23:40 | 4.61930 | 55.05706 | 36858 ft | 452 kts | 356° |
| 2026-04-17 23:41 | 4.68213 | 55.05246 | 36858 ft | 452 kts | 356° |
| 2026-04-17 23:41 | 4.74448 | 55.04789 | 36858 ft | 451 kts | 356° |
| 2026-04-17 23:42 | 4.80700 | 55.04331 | 36858 ft | 451 kts | 356° |
| 2026-04-17 23:42 | 4.86953 | 55.03873 | 36858 ft | 451 kts | 355° |
| 2026-04-17 23:43 | 4.93176 | 55.03416 | 36857 ft | 450 kts | 355° |
| 2026-04-17 23:43 | 4.99415 | 55.02959 | 36857 ft | 450 kts | 356° |
| 2026-04-17 23:44 | 5.05666 | 55.02501 | 36858 ft | 452 kts | 356° |
| 2026-04-17 23:44 | 5.11963 | 55.02038 | 36859 ft | 453 kts | 358° |
| 2026-04-17 23:45 | 5.21352 | 55.01350 | 36857 ft | 451 kts | 358° |
| 2026-04-17 23:46 | 5.27593 | 55.00892 | 36858 ft | 452 kts | 357° |
| 2026-04-17 23:46 | 5.33830 | 55.00434 | 36858 ft | 452 kts | 357° |
| 2026-04-17 23:47 | 5.40105 | 54.99977 | 36858 ft | 452 kts | 358° |
| 2026-04-17 23:47 | 5.46391 | 54.99921 | 36858 ft | 451 kts | 2° |
| 2026-04-17 23:48 | 5.52656 | 54.99977 | 36858 ft | 451 kts | 2° |
| 2026-04-17 23:48 | 5.58906 | 54.99982 | 36858 ft | 451 kts | 2° |
| 2026-04-17 23:49 | 5.65170 | 54.99992 | 36858 ft | 451 kts | 2° |
| 2026-04-17 23:49 | 5.71419 | 54.99995 | 36858 ft | 451 kts | 2° |
| 2026-04-17 23:50 | 5.77696 | 54.99998 | 36858 ft | 451 kts | 2° |
| 2026-04-17 23:50 | 5.83972 | 54.99999 | 36858 ft | 451 kts | 2° |
| 2026-04-17 23:51 | 5.90239 | 55.00000 | 36858 ft | 451 kts | 1° |
| 2026-04-17 23:51 | 5.96492 | 55.00000 | 36858 ft | 451 kts | 1° |
| 2026-04-17 23:52 | 6.02737 | 55.00000 | 36857 ft | 451 kts | 2° |
| 2026-04-17 23:52 | 6.08995 | 55.00000 | 36858 ft | 451 kts | 1° |
| 2026-04-17 23:53 | 6.15267 | 55.00000 | 36890 ft | 451 kts | 1° |
| 2026-04-17 23:53 | 6.21516 | 55.00001 | 36922 ft | 451 kts | 1° |
| 2026-04-17 23:54 | 6.27796 | 55.00000 | 36938 ft | 451 kts | 2° |
| 2026-04-17 23:54 | 6.34038 | 55.00001 | 36939 ft | 451 kts | 1° |
| 2026-04-17 23:55 | 6.40319 | 55.00000 | 36938 ft | 451 kts | 2° |
| 2026-04-17 23:55 | 6.46568 | 55.00001 | 36939 ft | 451 kts | 1° |
| 2026-04-17 23:56 | 6.52842 | 55.00000 | 36939 ft | 451 kts | 1° |
| 2026-04-17 23:56 | 6.59127 | 55.00001 | 36939 ft | 451 kts | 2° |
| 2026-04-17 23:57 | 6.65369 | 55.00000 | 36939 ft | 451 kts | 1° |
| 2026-04-17 23:57 | 6.71618 | 55.00001 | 36939 ft | 451 kts | 1° |
| 2026-04-17 23:58 | 6.77916 | 55.00000 | 36939 ft | 451 kts | 1° |
| 2026-04-17 23:58 | 6.84131 | 55.00000 | 36939 ft | 450 kts | 1° |
| 2026-04-17 23:59 | 6.90393 | 55.00000 | 36938 ft | 451 kts | 2° |
| 2026-04-17 23:59 | 6.96675 | 55.00000 | 36939 ft | 453 kts | 2° |
| 2026-04-18 00:00 | 7.02946 | 55.00001 | 36939 ft | 455 kts | 3° |
| 2026-04-18 00:00 | 7.09273 | 55.00001 | 36939 ft | 457 kts | 3° |
| 2026-04-18 00:01 | 7.15624 | 55.00000 | 36939 ft | 456 kts | 3° |
| 2026-04-18 00:01 | 7.21916 | 55.00000 | 36939 ft | 455 kts | 3° |
| 2026-04-18 00:02 | 7.28237 | 55.00000 | 36939 ft | 455 kts | 3° |
| 2026-04-18 00:02 | 7.34547 | 55.00000 | 36939 ft | 455 kts | 3° |
| 2026-04-18 00:03 | 7.40867 | 55.00000 | 36939 ft | 455 kts | 3° |
| 2026-04-18 00:03 | 7.47217 | 55.00001 | 36939 ft | 455 kts | 3° |
| 2026-04-18 00:04 | 7.53516 | 55.00000 | 36939 ft | 455 kts | 3° |
| 2026-04-18 00:04 | 7.59851 | 55.00001 | 36939 ft | 455 kts | 3° |
| 2026-04-18 00:05 | 7.66148 | 55.00000 | 36938 ft | 455 kts | 3° |
| 2026-04-18 00:05 | 7.72450 | 55.00001 | 36939 ft | 455 kts | 3° |
| 2026-04-18 00:06 | 7.78777 | 55.00000 | 36939 ft | 455 kts | 3° |
| 2026-04-18 00:06 | 7.85080 | 55.00001 | 36939 ft | 455 kts | 3° |
| 2026-04-18 00:07 | 7.91437 | 55.00000 | 36939 ft | 455 kts | 3° |
| 2026-04-18 00:07 | 7.97745 | 55.00001 | 36939 ft | 455 kts | 3° |
| 2026-04-18 00:08 | 8.04049 | 55.00000 | 36939 ft | 456 kts | 3° |
| 2026-04-18 00:08 | 8.10365 | 55.00000 | 36939 ft | 455 kts | 3° |
| 2026-04-18 00:09 | 8.16694 | 55.00000 | 36939 ft | 455 kts | 3° |
| 2026-04-18 00:09 | 8.23030 | 55.00001 | 36939 ft | 455 kts | 3° |
| 2026-04-18 00:10 | 8.29346 | 55.00000 | 36939 ft | 456 kts | 3° |
| 2026-04-18 00:10 | 8.35652 | 55.00001 | 36939 ft | 455 kts | 3° |
| 2026-04-18 00:11 | 8.41999 | 55.00000 | 36938 ft | 455 kts | 3° |
| 2026-04-18 00:11 | 8.48356 | 55.00001 | 36939 ft | 455 kts | 3° |
| 2026-04-18 00:12 | 8.54676 | 55.00001 | 36939 ft | 455 kts | 3° |
| 2026-04-18 00:12 | 8.61010 | 55.00001 | 36939 ft | 455 kts | 3° |
| 2026-04-18 00:13 | 8.67363 | 55.00001 | 36939 ft | 456 kts | 3° |
| 2026-04-18 00:13 | 8.73710 | 55.00000 | 36938 ft | 456 kts | 3° |
| 2026-04-18 00:14 | 8.80047 | 55.00001 | 36939 ft | 455 kts | 3° |
| 2026-04-18 00:14 | 8.86383 | 55.00000 | 36938 ft | 455 kts | 3° |
| 2026-04-18 00:15 | 8.92716 | 55.00000 | 36939 ft | 455 kts | 3° |
| 2026-04-18 00:15 | 8.99027 | 55.00000 | 36939 ft | 455 kts | 3° |
| 2026-04-18 00:16 | 9.05371 | 55.00000 | 36938 ft | 452 kts | 3° |
| 2026-04-18 00:16 | 9.11631 | 55.00000 | 36939 ft | 449 kts | 3° |
| 2026-04-18 00:17 | 9.17840 | 55.00000 | 36939 ft | 448 kts | 3° |
| 2026-04-18 00:17 | 9.24073 | 55.00000 | 36939 ft | 449 kts | 3° |
| 2026-04-18 00:18 | 9.30317 | 55.00000 | 36939 ft | 449 kts | 3° |
| 2026-04-18 00:18 | 9.36559 | 55.00000 | 36939 ft | 449 kts | 3° |
| 2026-04-18 00:19 | 9.42837 | 55.00000 | 36939 ft | 449 kts | 3° |
| 2026-04-18 00:19 | 9.49056 | 55.00000 | 36939 ft | 449 kts | 3° |
| 2026-04-18 00:20 | 9.55314 | 55.00000 | 36939 ft | 449 kts | 3° |
| 2026-04-18 00:20 | 9.61533 | 55.00000 | 36939 ft | 449 kts | 3° |
| 2026-04-18 00:21 | 9.67756 | 55.00000 | 36939 ft | 449 kts | 3° |
| 2026-04-18 00:21 | 9.73998 | 55.00000 | 36939 ft | 449 kts | 3° |
| 2026-04-18 00:22 | 9.80227 | 55.00000 | 36939 ft | 449 kts | 3° |
| 2026-04-18 00:22 | 9.86488 | 55.00000 | 36939 ft | 449 kts | 3° |
| 2026-04-18 00:23 | 9.92724 | 55.00000 | 36939 ft | 449 kts | 3° |
| 2026-04-18 00:23 | 9.98955 | 55.00000 | 36939 ft | 449 kts | 3° |
| 2026-04-18 00:24 | 10.05174 | 55.00000 | 36939 ft | 449 kts | 3° |
| 2026-04-18 00:24 | 10.11403 | 55.00000 | 36939 ft | 449 kts | 3° |
| 2026-04-18 00:25 | 10.17666 | 55.00000 | 36939 ft | 449 kts | 3° |
| 2026-04-18 00:25 | 10.23893 | 55.00001 | 36939 ft | 449 kts | 3° |
| 2026-04-18 00:26 | 10.30123 | 55.00000 | 36939 ft | 449 kts | 3° |
| 2026-04-18 00:26 | 10.36377 | 55.00000 | 36939 ft | 449 kts | 3° |
| 2026-04-18 00:27 | 10.42595 | 55.00000 | 36939 ft | 449 kts | 3° |
| 2026-04-18 00:27 | 10.48831 | 55.00000 | 36939 ft | 449 kts | 3° |
| 2026-04-18 00:28 | 10.55075 | 55.00000 | 36939 ft | 449 kts | 3° |
| 2026-04-18 00:28 | 10.61317 | 55.00000 | 36939 ft | 449 kts | 3° |
| 2026-04-18 00:29 | 10.67552 | 55.00000 | 36939 ft | 449 kts | 3° |
| 2026-04-18 00:29 | 10.73774 | 55.00000 | 36939 ft | 449 kts | 3° |
| 2026-04-18 00:30 | 10.80024 | 55.00000 | 36939 ft | 449 kts | 3° |
| 2026-04-18 00:30 | 10.86245 | 55.00000 | 36939 ft | 449 kts | 3° |
| 2026-04-18 00:31 | 10.92477 | 55.00000 | 36939 ft | 449 kts | 3° |
| 2026-04-18 00:31 | 10.98709 | 55.00000 | 36939 ft | 447 kts | 3° |
| 2026-04-18 00:32 | 11.04880 | 55.00000 | 36939 ft | 446 kts | 3° |
| 2026-04-18 00:32 | 11.11097 | 55.00000 | 36939 ft | 446 kts | 3° |
| 2026-04-18 00:33 | 11.17281 | 55.00000 | 36939 ft | 447 kts | 3° |
| 2026-04-18 00:33 | 11.23480 | 55.00000 | 36939 ft | 447 kts | 3° |
| 2026-04-18 00:34 | 11.29697 | 55.00000 | 36939 ft | 446 kts | 3° |
| 2026-04-18 00:34 | 11.35893 | 55.00000 | 36939 ft | 447 kts | 3° |
| 2026-04-18 00:35 | 11.42105 | 55.00000 | 36939 ft | 447 kts | 3° |
| 2026-04-18 00:35 | 11.48290 | 55.00000 | 36938 ft | 447 kts | 3° |
| 2026-04-18 00:36 | 11.54511 | 55.00001 | 36939 ft | 446 kts | 3° |
| 2026-04-18 00:36 | 11.60707 | 55.00000 | 36938 ft | 446 kts | 3° |
| 2026-04-18 00:37 | 11.66873 | 55.00001 | 36939 ft | 447 kts | 3° |
| 2026-04-18 00:37 | 11.73104 | 55.00000 | 36939 ft | 447 kts | 3° |
| 2026-04-18 00:38 | 11.79300 | 55.00000 | 36939 ft | 447 kts | 3° |
| 2026-04-18 00:38 | 11.85490 | 55.00000 | 36939 ft | 447 kts | 3° |
| 2026-04-18 00:39 | 11.91702 | 55.00000 | 36938 ft | 447 kts | 3° |
| 2026-04-18 00:39 | 11.97909 | 55.00001 | 36939 ft | 447 kts | 3° |
| 2026-04-18 00:40 | 12.04061 | 55.00445 | 36940 ft | 443 kts | 11° |
| 2026-04-18 00:40 | 12.10156 | 55.01271 | 36938 ft | 444 kts | 10° |
| 2026-04-18 00:41 | 12.16281 | 55.02020 | 36939 ft | 444 kts | 10° |
| 2026-04-18 00:41 | 12.22413 | 55.02787 | 36939 ft | 444 kts | 10° |
| 2026-04-18 00:42 | 12.28541 | 55.03550 | 36939 ft | 444 kts | 10° |
| 2026-04-18 00:42 | 12.34656 | 55.04312 | 36939 ft | 444 kts | 10° |
| 2026-04-18 00:43 | 12.40800 | 55.05078 | 36938 ft | 445 kts | 10° |
| 2026-04-18 00:43 | 12.46914 | 55.05840 | 36939 ft | 445 kts | 10° |
| 2026-04-18 00:44 | 12.53023 | 55.06603 | 36938 ft | 445 kts | 10° |
| 2026-04-18 00:44 | 12.59177 | 55.07371 | 36939 ft | 445 kts | 10° |
| 2026-04-18 00:45 | 12.65329 | 55.08139 | 36939 ft | 445 kts | 10° |
| 2026-04-18 00:45 | 12.71461 | 55.08905 | 36939 ft | 446 kts | 10° |
| 2026-04-18 00:46 | 12.77573 | 55.09669 | 36939 ft | 445 kts | 10° |
| 2026-04-18 00:46 | 12.83708 | 55.10436 | 36939 ft | 445 kts | 10° |
| 2026-04-18 00:47 | 12.89857 | 55.11205 | 36938 ft | 445 kts | 10° |
| 2026-04-18 00:47 | 12.95987 | 55.11973 | 36939 ft | 445 kts | 10° |
| 2026-04-18 00:48 | 13.02124 | 55.12741 | 36939 ft | 444 kts | 10° |
| 2026-04-18 00:48 | 13.08228 | 55.13506 | 36939 ft | 442 kts | 10° |
| 2026-04-18 00:49 | 13.17320 | 55.14645 | 36939 ft | 439 kts | 10° |
| 2026-04-18 00:49 | 13.23395 | 55.15408 | 36939 ft | 440 kts | 10° |
| 2026-04-18 00:50 | 13.29457 | 55.16168 | 36939 ft | 440 kts | 10° |
| 2026-04-18 00:50 | 13.35514 | 55.16929 | 36938 ft | 440 kts | 10° |
| 2026-04-18 00:51 | 13.41570 | 55.17690 | 36939 ft | 439 kts | 10° |
| 2026-04-18 00:51 | 13.47648 | 55.18454 | 36938 ft | 439 kts | 10° |
| 2026-04-18 00:52 | 13.53669 | 55.19211 | 36939 ft | 439 kts | 10° |
| 2026-04-18 00:52 | 13.59718 | 55.19972 | 36939 ft | 439 kts | 9° |
| 2026-04-18 00:53 | 13.65774 | 55.20734 | 36939 ft | 439 kts | 10° |
| 2026-04-18 00:53 | 13.71809 | 55.21495 | 36938 ft | 439 kts | 10° |
| 2026-04-18 00:54 | 13.77876 | 55.22259 | 36939 ft | 439 kts | 10° |
| 2026-04-18 00:54 | 13.83946 | 55.23025 | 36939 ft | 439 kts | 10° |
| 2026-04-18 00:55 | 13.89991 | 55.23788 | 36939 ft | 439 kts | 9° |
| 2026-04-18 00:55 | 13.96007 | 55.24537 | 36939 ft | 439 kts | 9° |
| 2026-04-18 00:56 | 14.02097 | 55.25290 | 36939 ft | 439 kts | 9° |
| 2026-04-18 00:56 | 14.08123 | 55.26038 | 36939 ft | 439 kts | 9° |
| 2026-04-18 00:57 | 14.14187 | 55.26790 | 36939 ft | 439 kts | 9° |
| 2026-04-18 00:57 | 14.20238 | 55.27541 | 36939 ft | 439 kts | 9° |
| 2026-04-18 00:58 | 14.26274 | 55.28291 | 36939 ft | 439 kts | 9° |
| 2026-04-18 00:58 | 14.32324 | 55.29043 | 36938 ft | 439 kts | 9° |
| 2026-04-18 00:59 | 14.38385 | 55.29797 | 36939 ft | 439 kts | 9° |
| 2026-04-18 00:59 | 14.44400 | 55.30546 | 36939 ft | 439 kts | 9° |
| 2026-04-18 01:00 | 14.50466 | 55.31301 | 36939 ft | 439 kts | 9° |
| 2026-04-18 01:00 | 14.56504 | 55.32053 | 36938 ft | 439 kts | 9° |
| 2026-04-18 01:01 | 14.62588 | 55.32812 | 36939 ft | 439 kts | 9° |
| 2026-04-18 01:01 | 14.68638 | 55.33567 | 36939 ft | 439 kts | 9° |
| 2026-04-18 01:02 | 14.74694 | 55.34323 | 36939 ft | 439 kts | 9° |
| 2026-04-18 01:02 | 14.80718 | 55.35075 | 36939 ft | 439 kts | 9° |
| 2026-04-18 01:03 | 14.86757 | 55.35830 | 36939 ft | 439 kts | 9° |
| 2026-04-18 01:03 | 14.92818 | 55.36588 | 36939 ft | 440 kts | 9° |
| 2026-04-18 01:04 | 14.98906 | 55.37350 | 36939 ft | 444 kts | 9° |
| 2026-04-18 01:04 | 15.05050 | 55.38121 | 36939 ft | 448 kts | 9° |
| 2026-04-18 01:05 | 15.11229 | 55.38910 | 36938 ft | 449 kts | 9° |
| 2026-04-18 01:05 | 15.17394 | 55.39686 | 36939 ft | 448 kts | 9° |
| 2026-04-18 01:06 | 15.23549 | 55.40458 | 36940 ft | 448 kts | 9° |
| 2026-04-18 01:06 | 15.29731 | 55.41235 | 36939 ft | 448 kts | 9° |
| 2026-04-18 01:07 | 15.35879 | 55.41995 | 36938 ft | 449 kts | 9° |
| 2026-04-18 01:07 | 15.42051 | 55.42718 | 36938 ft | 448 kts | 9° |
| 2026-04-18 01:08 | 15.48228 | 55.43453 | 36939 ft | 447 kts | 9° |
| 2026-04-18 01:08 | 15.54390 | 55.44212 | 36939 ft | 449 kts | 9° |
| 2026-04-18 01:09 | 15.60576 | 55.45003 | 36938 ft | 448 kts | 9° |
| 2026-04-18 01:09 | 15.66727 | 55.45781 | 36939 ft | 448 kts | 9° |
| 2026-04-18 01:10 | 15.72902 | 55.46563 | 36938 ft | 448 kts | 9° |
| 2026-04-18 01:10 | 15.79106 | 55.47316 | 36939 ft | 447 kts | 9° |
| 2026-04-18 01:11 | 15.85244 | 55.48043 | 36939 ft | 448 kts | 9° |
| 2026-04-18 01:11 | 15.91439 | 55.48798 | 36938 ft | 448 kts | 9° |
| 2026-04-18 01:12 | 15.97609 | 55.49593 | 36938 ft | 447 kts | 9° |
| 2026-04-18 01:12 | 16.03756 | 55.50370 | 36939 ft | 448 kts | 9° |
| 2026-04-18 01:13 | 16.09936 | 55.51155 | 36939 ft | 448 kts | 9° |
| 2026-04-18 01:13 | 16.16079 | 55.51917 | 36938 ft | 448 kts | 9° |
| 2026-04-18 01:14 | 16.22242 | 55.52687 | 36939 ft | 447 kts | 9° |
| 2026-04-18 01:14 | 16.28404 | 55.53451 | 36938 ft | 449 kts | 9° |
| 2026-04-18 01:15 | 16.34563 | 55.54220 | 36939 ft | 448 kts | 9° |
| 2026-04-18 01:15 | 16.40757 | 55.54997 | 36939 ft | 448 kts | 9° |
| 2026-04-18 01:16 | 16.46898 | 55.55757 | 36938 ft | 448 kts | 9° |
| 2026-04-18 01:16 | 16.53060 | 55.56526 | 36938 ft | 447 kts | 9° |
| 2026-04-18 01:17 | 16.59224 | 55.57272 | 36939 ft | 447 kts | 9° |
| 2026-04-18 01:17 | 16.65371 | 55.58005 | 36939 ft | 448 kts | 9° |
| 2026-04-18 01:18 | 16.71551 | 55.58773 | 36939 ft | 447 kts | 9° |
| 2026-04-18 01:18 | 16.77710 | 55.59540 | 36939 ft | 448 kts | 9° |
| 2026-04-18 01:19 | 16.83858 | 55.60300 | 36938 ft | 447 kts | 9° |
| 2026-04-18 01:19 | 16.89999 | 55.61061 | 36938 ft | 448 kts | 9° |
| 2026-04-18 01:20 | 16.96177 | 55.61850 | 36938 ft | 447 kts | 9° |
| 2026-04-18 01:20 | 17.02304 | 55.62655 | 36939 ft | 449 kts | 9° |
| 2026-04-18 01:21 | 17.08513 | 55.63462 | 36939 ft | 451 kts | 7° |
| 2026-04-18 01:21 | 17.14712 | 55.64246 | 36938 ft | 448 kts | 7° |
| 2026-04-18 01:22 | 17.20852 | 55.65028 | 36939 ft | 447 kts | 7° |
| 2026-04-18 01:22 | 17.26980 | 55.65808 | 36939 ft | 448 kts | 7° |
| 2026-04-18 01:23 | 17.33178 | 55.66598 | 36939 ft | 448 kts | 7° |
| 2026-04-18 01:23 | 17.39315 | 55.67381 | 36939 ft | 448 kts | 7° |
| 2026-04-18 01:24 | 17.45472 | 55.68167 | 36939 ft | 448 kts | 7° |
| 2026-04-18 01:24 | 17.51634 | 55.68954 | 36939 ft | 448 kts | 7° |
| 2026-04-18 01:25 | 17.57804 | 55.69742 | 36939 ft | 448 kts | 7° |
| 2026-04-18 01:25 | 17.63945 | 55.70527 | 36939 ft | 448 kts | 7° |
| 2026-04-18 01:26 | 17.70148 | 55.71321 | 36939 ft | 448 kts | 7° |
| 2026-04-18 01:26 | 17.76293 | 55.72107 | 36939 ft | 448 kts | 7° |
| 2026-04-18 01:27 | 17.82437 | 55.72895 | 36939 ft | 448 kts | 7° |
| 2026-04-18 01:27 | 17.88601 | 55.73685 | 36939 ft | 448 kts | 7° |
| 2026-04-18 01:28 | 17.94748 | 55.74474 | 36939 ft | 448 kts | 7° |
| 2026-04-18 01:28 | 18.00907 | 55.75530 | 36940 ft | 447 kts | 15° |
| 2026-04-18 01:29 | 18.06892 | 55.77193 | 36939 ft | 447 kts | 15° |
| 2026-04-18 01:29 | 18.12892 | 55.78770 | 36939 ft | 447 kts | 15° |
| 2026-04-18 01:30 | 18.18873 | 55.80355 | 36939 ft | 447 kts | 15° |
| 2026-04-18 01:30 | 18.24882 | 55.81948 | 36939 ft | 447 kts | 15° |
| 2026-04-18 01:31 | 18.30877 | 55.83538 | 36939 ft | 447 kts | 15° |
| 2026-04-18 01:31 | 18.36888 | 55.85133 | 36939 ft | 447 kts | 15° |
| 2026-04-18 01:32 | 18.42882 | 55.86724 | 36939 ft | 446 kts | 15° |
| 2026-04-18 01:32 | 18.48907 | 55.88325 | 36939 ft | 447 kts | 15° |
| 2026-04-18 01:33 | 18.54886 | 55.89916 | 36939 ft | 447 kts | 15° |
| 2026-04-18 01:33 | 18.60905 | 55.91517 | 36939 ft | 447 kts | 15° |
| 2026-04-18 01:34 | 18.66886 | 55.93110 | 36939 ft | 447 kts | 15° |
| 2026-04-18 01:34 | 18.72904 | 55.94714 | 36939 ft | 447 kts | 15° |
| 2026-04-18 01:35 | 18.78912 | 55.96316 | 36939 ft | 447 kts | 15° |
| 2026-04-18 01:35 | 18.84896 | 55.97913 | 36939 ft | 447 kts | 15° |
| 2026-04-18 01:36 | 18.90934 | 55.99526 | 36939 ft | 447 kts | 15° |
| 2026-04-18 01:36 | 18.96864 | 56.01427 | 36937 ft | 449 kts | 23° |
| 2026-04-18 01:37 | 19.02315 | 56.04374 | 36939 ft | 451 kts | 29° |
| 2026-04-18 01:37 | 19.07813 | 56.07521 | 36939 ft | 452 kts | 28° |
| 2026-04-18 01:38 | 19.13308 | 56.10656 | 36938 ft | 451 kts | 28° |
| 2026-04-18 01:38 | 19.18771 | 56.13810 | 36939 ft | 451 kts | 28° |
| 2026-04-18 01:39 | 19.24267 | 56.16991 | 36939 ft | 451 kts | 28° |
| 2026-04-18 01:39 | 19.29734 | 56.20164 | 36939 ft | 451 kts | 29° |
| 2026-04-18 01:40 | 19.35224 | 56.23356 | 36939 ft | 451 kts | 29° |
| 2026-04-18 01:40 | 19.40703 | 56.26546 | 36939 ft | 451 kts | 29° |
| 2026-04-18 01:41 | 19.46169 | 56.29731 | 36939 ft | 451 kts | 29° |
| 2026-04-18 01:41 | 19.51639 | 56.32921 | 36939 ft | 450 kts | 29° |
| 2026-04-18 01:42 | 19.57113 | 56.36117 | 36939 ft | 450 kts | 29° |
| 2026-04-18 01:42 | 19.62559 | 56.39299 | 36939 ft | 450 kts | 29° |
| 2026-04-18 01:43 | 19.68039 | 56.42503 | 36939 ft | 450 kts | 29° |
| 2026-04-18 01:43 | 19.73502 | 56.45701 | 36939 ft | 450 kts | 29° |
| 2026-04-18 01:44 | 19.78980 | 56.48909 | 36939 ft | 450 kts | 29° |
| 2026-04-18 01:44 | 19.84424 | 56.52108 | 36939 ft | 450 kts | 30° |
| 2026-04-18 01:45 | 19.89747 | 56.55559 | 36939 ft | 450 kts | 32° |
| 2026-04-18 01:45 | 19.95060 | 56.59055 | 36939 ft | 450 kts | 31° |
| 2026-04-18 01:46 | 20.00388 | 56.62531 | 36939 ft | 450 kts | 31° |
| 2026-04-18 01:46 | 20.05704 | 56.66005 | 36920 ft | 451 kts | 32° |
| 2026-04-18 01:47 | 20.11033 | 56.69486 | 36900 ft | 450 kts | 32° |
| 2026-04-18 01:47 | 20.16351 | 56.72961 | 36886 ft | 450 kts | 32° |
| 2026-04-18 01:48 | 20.21668 | 56.76442 | 36885 ft | 450 kts | 32° |
| 2026-04-18 01:48 | 20.26994 | 56.79937 | 36885 ft | 450 kts | 32° |
| 2026-04-18 01:49 | 20.32306 | 56.83424 | 36885 ft | 450 kts | 32° |
| 2026-04-18 01:49 | 20.37595 | 56.86898 | 36885 ft | 450 kts | 32° |
| 2026-04-18 01:50 | 20.42939 | 56.90411 | 36885 ft | 450 kts | 32° |
| 2026-04-18 01:50 | 20.48243 | 56.93901 | 36885 ft | 450 kts | 32° |
| 2026-04-18 01:51 | 20.53551 | 56.97396 | 36885 ft | 449 kts | 32° |
| 2026-04-18 01:51 | 20.58836 | 57.00880 | 36885 ft | 449 kts | 32° |
| 2026-04-18 01:52 | 20.64147 | 57.04382 | 36885 ft | 449 kts | 32° |
| 2026-04-18 01:52 | 20.69440 | 57.07877 | 36885 ft | 449 kts | 32° |
| 2026-04-18 01:53 | 20.74702 | 57.11353 | 36885 ft | 448 kts | 32° |
| 2026-04-18 01:54 | 20.82644 | 57.16606 | 36885 ft | 447 kts | 32° |
| 2026-04-18 01:54 | 20.87887 | 57.20077 | 36885 ft | 447 kts | 32° |
| 2026-04-18 01:55 | 20.93153 | 57.23566 | 36885 ft | 448 kts | 32° |
| 2026-04-18 01:55 | 20.98442 | 57.27074 | 36884 ft | 448 kts | 31° |
| 2026-04-18 01:56 | 21.03721 | 57.30578 | 36885 ft | 450 kts | 31° |
| 2026-04-18 01:56 | 21.09027 | 57.34103 | 36885 ft | 452 kts | 31° |
| 2026-04-18 01:57 | 21.14345 | 57.37638 | 36884 ft | 452 kts | 30° |
| 2026-04-18 01:57 | 21.19673 | 57.41183 | 36885 ft | 452 kts | 30° |
| 2026-04-18 01:58 | 21.24989 | 57.44723 | 36885 ft | 451 kts | 30° |
| 2026-04-18 01:58 | 21.30301 | 57.48264 | 36885 ft | 451 kts | 30° |
| 2026-04-18 01:59 | 21.35638 | 57.51825 | 36885 ft | 452 kts | 30° |
| 2026-04-18 01:59 | 21.40949 | 57.55370 | 36885 ft | 452 kts | 30° |
| 2026-04-18 02:00 | 21.46258 | 57.58918 | 36885 ft | 452 kts | 30° |
| 2026-04-18 02:00 | 21.51555 | 57.62461 | 36885 ft | 452 kts | 30° |
| 2026-04-18 02:01 | 21.56872 | 57.66021 | 36885 ft | 451 kts | 31° |
| 2026-04-18 02:01 | 21.62190 | 57.69584 | 36885 ft | 451 kts | 31° |
| 2026-04-18 02:02 | 21.67483 | 57.73131 | 36884 ft | 452 kts | 31° |
| 2026-04-18 02:02 | 21.72804 | 57.76701 | 36885 ft | 452 kts | 31° |
| 2026-04-18 02:03 | 21.78112 | 57.80265 | 36885 ft | 452 kts | 31° |
| 2026-04-18 02:03 | 21.83411 | 57.83827 | 36885 ft | 451 kts | 31° |
| 2026-04-18 02:04 | 21.88717 | 57.87397 | 36885 ft | 451 kts | 31° |
| 2026-04-18 02:04 | 21.94041 | 57.90981 | 36885 ft | 452 kts | 31° |
| 2026-04-18 02:05 | 21.99338 | 57.94552 | 36885 ft | 452 kts | 31° |
| 2026-04-18 02:05 | 22.04658 | 57.98140 | 36884 ft | 452 kts | 31° |
| 2026-04-18 02:06 | 22.09975 | 58.01702 | 36883 ft | 451 kts | 28° |
| 2026-04-18 02:06 | 22.12743 | 58.03230 | 36553 ft | 447 kts | 21° |
| 2026-04-18 02:06 | 22.15629 | 58.04288 | 35935 ft | 443 kts | 11° |
| 2026-04-18 02:06 | 22.18628 | 58.04849 | 35395 ft | 437 kts | 5° |
| 2026-04-18 02:07 | 22.21621 | 58.05256 | 34865 ft | 434 kts | 6° |
| 2026-04-18 02:07 | 22.24596 | 58.05708 | 34334 ft | 430 kts | 6° |
| 2026-04-18 02:07 | 22.27522 | 58.06178 | 33811 ft | 427 kts | 6° |
| 2026-04-18 02:07 | 22.30427 | 58.06633 | 33289 ft | 423 kts | 6° |
| 2026-04-18 02:08 | 22.33311 | 58.07072 | 32771 ft | 420 kts | 6° |
| 2026-04-18 02:08 | 22.36169 | 58.07504 | 32255 ft | 416 kts | 6° |
| 2026-04-18 02:08 | 22.39037 | 58.07938 | 31737 ft | 413 kts | 6° |
| 2026-04-18 02:08 | 22.41839 | 58.08361 | 31228 ft | 409 kts | 5° |
| 2026-04-18 02:09 | 22.44622 | 58.08780 | 30722 ft | 405 kts | 5° |
| 2026-04-18 02:09 | 22.47415 | 58.09199 | 30212 ft | 402 kts | 5° |
| 2026-04-18 02:09 | 22.50145 | 58.09609 | 29714 ft | 398 kts | 5° |
| 2026-04-18 02:09 | 22.52836 | 58.10012 | 29220 ft | 394 kts | 5° |
| 2026-04-18 02:10 | 22.55528 | 58.10415 | 28726 ft | 391 kts | 5° |
| 2026-04-18 02:10 | 22.58230 | 58.10819 | 28229 ft | 387 kts | 5° |
| 2026-04-18 02:10 | 22.60869 | 58.11214 | 27743 ft | 383 kts | 5° |
| 2026-04-18 02:10 | 22.63452 | 58.11601 | 27265 ft | 379 kts | 5° |
| 2026-04-18 02:11 | 22.66055 | 58.11991 | 26784 ft | 375 kts | 5° |
| 2026-04-18 02:11 | 22.68601 | 58.12372 | 26312 ft | 372 kts | 5° |
| 2026-04-18 02:11 | 22.71152 | 58.12754 | 25839 ft | 368 kts | 6° |
| 2026-04-18 02:11 | 22.73661 | 58.13130 | 25374 ft | 364 kts | 6° |
| 2026-04-18 02:12 | 22.76158 | 58.13504 | 24941 ft | 359 kts | 6° |
| 2026-04-18 02:12 | 22.78555 | 58.13864 | 24890 ft | 346 kts | 6° |
| 2026-04-18 02:12 | 22.80943 | 58.14222 | 24891 ft | 350 kts | 6° |
| 2026-04-18 02:12 | 22.83353 | 58.14581 | 24883 ft | 356 kts | 6° |
| 2026-04-18 02:13 | 22.85807 | 58.14950 | 24682 ft | 350 kts | 6° |
| 2026-04-18 02:13 | 22.88180 | 58.15308 | 24297 ft | 345 kts | 6° |
| 2026-04-18 02:13 | 22.90536 | 58.15661 | 23872 ft | 341 kts | 6° |
| 2026-04-18 02:13 | 22.92876 | 58.16013 | 23436 ft | 338 kts | 6° |
| 2026-04-18 02:14 | 22.95185 | 58.16357 | 23001 ft | 343 kts | 9° |
| 2026-04-18 02:14 | 22.97598 | 58.16727 | 22573 ft | 366 kts | 9° |
| 2026-04-18 02:14 | 23.00151 | 58.17113 | 22072 ft | 376 kts | 9° |
| 2026-04-18 02:14 | 23.02753 | 58.17501 | 21587 ft | 373 kts | 9° |
| 2026-04-18 02:15 | 23.05292 | 58.17880 | 21112 ft | 371 kts | 9° |
| 2026-04-18 02:15 | 23.07817 | 58.18260 | 20638 ft | 368 kts | 10° |
| 2026-04-18 02:15 | 23.10360 | 58.18643 | 20160 ft | 366 kts | 10° |
| 2026-04-18 02:15 | 23.12850 | 58.19017 | 19691 ft | 363 kts | 10° |
| 2026-04-18 02:16 | 23.15327 | 58.19390 | 19224 ft | 360 kts | 10° |
| 2026-04-18 02:16 | 23.17790 | 58.19761 | 18759 ft | 357 kts | 10° |
| 2026-04-18 02:16 | 23.20220 | 58.20128 | 18300 ft | 354 kts | 11° |
| 2026-04-18 02:16 | 23.22641 | 58.20493 | 17842 ft | 351 kts | 11° |
| 2026-04-18 02:17 | 23.25043 | 58.20855 | 17388 ft | 348 kts | 11° |
| 2026-04-18 02:17 | 23.27413 | 58.21213 | 16911 ft | 346 kts | 11° |
| 2026-04-18 02:17 | 23.29772 | 58.21569 | 16458 ft | 342 kts | 11° |
| 2026-04-18 02:17 | 23.32119 | 58.21924 | 16014 ft | 339 kts | 11° |
| 2026-04-18 02:18 | 23.34442 | 58.22275 | 15576 ft | 336 kts | 11° |
| 2026-04-18 02:18 | 23.36720 | 58.22619 | 15146 ft | 332 kts | 11° |
| 2026-04-18 02:18 | 23.39001 | 58.22964 | 14715 ft | 329 kts | 11° |
| 2026-04-18 02:18 | 23.41257 | 58.23306 | 14288 ft | 325 kts | 11° |
| 2026-04-18 02:19 | 23.43453 | 58.23655 | 13875 ft | 321 kts | 14° |
| 2026-04-18 02:19 | 23.45507 | 58.24488 | 13459 ft | 310 kts | 36° |
| 2026-04-18 02:19 | 23.47035 | 58.26044 | 13067 ft | 300 kts | 56° |
| 2026-04-18 02:19 | 23.48012 | 58.28026 | 12666 ft | 293 kts | 73° |
| 2026-04-18 02:20 | 23.48370 | 58.30154 | 12301 ft | 288 kts | 86° |
| 2026-04-18 02:20 | 23.48513 | 58.32325 | 11912 ft | 285 kts | 85° |
| 2026-04-18 02:20 | 23.48695 | 58.34442 | 11540 ft | 281 kts | 84° |
| 2026-04-18 02:20 | 23.48878 | 58.36565 | 11167 ft | 278 kts | 84° |
| 2026-04-18 02:21 | 23.49049 | 58.38640 | 10804 ft | 275 kts | 84° |
| 2026-04-18 02:21 | 23.49222 | 58.40715 | 10440 ft | 274 kts | 84° |
| 2026-04-18 02:21 | 23.49392 | 58.42771 | 10216 ft | 272 kts | 84° |
| 2026-04-18 02:21 | 23.49559 | 58.44797 | 10107 ft | 259 kts | 84° |
| 2026-04-18 02:22 | 23.49718 | 58.46720 | 9875 ft | 253 kts | 84° |
| 2026-04-18 02:22 | 23.49874 | 58.48613 | 9538 ft | 252 kts | 84° |
| 2026-04-18 02:22 | 23.50028 | 58.50491 | 9243 ft | 248 kts | 84° |
| 2026-04-18 02:22 | 23.50181 | 58.52352 | 8937 ft | 241 kts | 84° |
| 2026-04-18 02:23 | 23.50326 | 58.54131 | 8652 ft | 234 kts | 84° |
| 2026-04-18 02:23 | 23.50469 | 58.55875 | 8386 ft | 227 kts | 83° |
| 2026-04-18 02:23 | 23.50606 | 58.57555 | 8159 ft | 218 kts | 83° |
| 2026-04-18 02:23 | 23.50737 | 58.59160 | 7938 ft | 211 kts | 83° |
| 2026-04-18 02:24 | 23.50865 | 58.60729 | 7738 ft | 205 kts | 83° |
| 2026-04-18 02:24 | 23.50990 | 58.62266 | 7499 ft | 207 kts | 83° |
| 2026-04-18 02:24 | 23.51217 | 58.63823 | 7194 ft | 208 kts | 66° |
| 2026-04-18 02:24 | 23.52135 | 58.64978 | 6962 ft | 205 kts | 25° |
| 2026-04-18 02:25 | 23.53540 | 58.65147 | 6740 ft | 210 kts | 351° |
| 2026-04-18 02:25 | 23.54971 | 58.64820 | 6467 ft | 211 kts | 358° |
| 2026-04-18 02:25 | 23.56393 | 58.64803 | 6284 ft | 198 kts | 1° |
| 2026-04-18 02:25 | 23.57721 | 58.64740 | 6060 ft | 186 kts | 358° |
| 2026-04-18 02:26 | 23.58966 | 58.64649 | 5940 ft | 179 kts | 358° |
| 2026-04-18 02:26 | 23.60240 | 58.64542 | 5889 ft | 184 kts | 357° |
| 2026-04-18 02:26 | 23.61463 | 58.64143 | 5777 ft | 188 kts | 324° |
| 2026-04-18 02:26 | 23.62140 | 58.62952 | 5613 ft | 195 kts | 278° |
| 2026-04-18 02:27 | 23.61933 | 58.61504 | 5435 ft | 196 kts | 254° |
| 2026-04-18 02:27 | 23.61701 | 58.60047 | 5188 ft | 193 kts | 271° |
| 2026-04-18 02:27 | 23.61755 | 58.58597 | 4976 ft | 191 kts | 277° |
| 2026-04-18 02:27 | 23.61937 | 58.57172 | 4774 ft | 189 kts | 283° |
| 2026-04-18 02:28 | 23.62248 | 58.55779 | 4577 ft | 188 kts | 289° |
| 2026-04-18 02:28 | 23.62583 | 58.54424 | 4346 ft | 190 kts | 277° |
| 2026-04-18 02:28 | 23.62585 | 58.52974 | 4093 ft | 188 kts | 270° |
| 2026-04-18 02:28 | 23.62567 | 58.51551 | 3838 ft | 187 kts | 270° |
| 2026-04-18 02:29 | 23.62504 | 58.50153 | 3594 ft | 186 kts | 267° |
| 2026-04-18 02:29 | 23.62405 | 58.48743 | 3347 ft | 185 kts | 267° |
| 2026-04-18 02:29 | 23.62299 | 58.47357 | 3103 ft | 184 kts | 266° |
| 2026-04-18 02:29 | 23.62191 | 58.45972 | 2859 ft | 183 kts | 266° |
| 2026-04-18 02:30 | 23.62081 | 58.44576 | 2614 ft | 182 kts | 266° |
| 2026-04-18 02:30 | 23.61974 | 58.43221 | 2373 ft | 182 kts | 266° |
| 2026-04-18 02:30 | 23.61866 | 58.41845 | 2195 ft | 177 kts | 266° |
| 2026-04-18 02:30 | 23.61759 | 58.40491 | 2052 ft | 184 kts | 266° |
| 2026-04-18 02:31 | 23.61649 | 58.39109 | 1780 ft | 180 kts | 266° |
| 2026-04-18 02:31 | 23.61543 | 58.37770 | 1545 ft | 178 kts | 266° |
| 2026-04-18 02:31 | 23.61437 | 58.36424 | 1305 ft | 178 kts | 266° |
| 2026-04-18 02:31 | 23.61330 | 58.35084 | 1064 ft | 177 kts | 265° |
| 2026-04-18 02:32 | 23.61226 | 58.33771 | 839 ft | 169 kts | 265° |
| 2026-04-18 02:32 | 23.61131 | 58.32571 | 617 ft | 156 kts | 265° |
| 2026-04-18 02:32 | 23.61037 | 58.31383 | 398 ft | 157 kts | 265° |
| 2026-04-18 02:32 | 23.60937 | 58.30192 | 156 ft | 157 kts | 265° |
| 2026-04-18 02:33 | 23.60855 | 58.29054 | 35 ft | 147 kts | 265° |
| 2026-04-18 02:33 | 23.60781 | 58.28142 | 33 ft | 85 kts | 265° |
| 2026-04-18 02:33 | 23.60742 | 58.27640 | 33 ft | 48 kts | 265° |
| 2026-04-18 02:33 | 23.60714 | 58.27294 | 33 ft | 42 kts | 263° |
| 2026-04-18 02:34 | 23.60635 | 58.27021 | 33 ft | 35 kts | 236° |
| 2026-04-18 02:34 | 23.60489 | 58.26810 | 33 ft | 32 kts | 208° |
| 2026-04-18 02:34 | 23.60421 | 58.26939 | 33 ft | 36 kts | 84° |
| 2026-04-18 02:34 | 23.60447 | 58.27265 | 33 ft | 42 kts | 85° |
| 2026-04-18 02:35 | 23.60470 | 58.27558 | 33 ft | 27 kts | 93° |
| 2026-04-18 02:35 | 23.60378 | 58.27718 | 33 ft | 25 kts | 130° |
| 2026-04-18 02:35 | 23.60265 | 58.27864 | 33 ft | 24 kts | 130° |
| 2026-04-18 02:35 | 23.60221 | 58.27925 | 33 ft | 6 kts | 158° |
| 2026-04-18 02:36 | 23.60186 | 58.27932 | 33 ft | 4 kts | 174° |
| 2026-04-18 02:36 | 23.60161 | 58.27934 | 33 ft | 3 kts | 174° |
| 2026-04-18 02:36 | 23.60134 | 58.27937 | 33 ft | 3 kts | 175° |
| 2026-04-18 02:36 | 23.60129 | 58.27938 | 33 ft | 0 kts | 175° |
| 2026-04-18 02:52 | 23.60139 | 58.27937 | 33 ft | 3 kts | 175° |
| 2026-04-18 02:52 | 23.60172 | 58.27934 | 33 ft | 6 kts | 175° |
| 2026-04-18 02:52 | 23.60221 | 58.27925 | 33 ft | 6 kts | 140° |
| 2026-04-18 02:53 | 23.60227 | 58.27904 | 33 ft | 5 kts | 81° |
| 2026-04-18 02:53 | 23.60237 | 58.28018 | 33 ft | 23 kts | 85° |
| 2026-04-18 02:53 | 23.60251 | 58.28188 | 33 ft | 21 kts | 85° |
| 2026-04-18 02:53 | 23.60271 | 58.28336 | 33 ft | 17 kts | 56° |
| 2026-04-18 02:54 | 23.60373 | 58.28354 | 33 ft | 16 kts | 355° |
| 2026-04-18 02:54 | 23.60489 | 58.28344 | 33 ft | 17 kts | 4° |
| 2026-04-18 02:54 | 23.60542 | 58.28447 | 33 ft | 19 kts | 86° |
| 2026-04-18 02:54 | 23.60559 | 58.28656 | 33 ft | 37 kts | 84° |
| 2026-04-18 02:55 | 23.60583 | 58.28960 | 33 ft | 39 kts | 84° |
| 2026-04-18 02:55 | 23.60605 | 58.29245 | 33 ft | 36 kts | 85° |
| 2026-04-18 02:55 | 23.60625 | 58.29507 | 33 ft | 33 kts | 85° |
| 2026-04-18 02:55 | 23.60679 | 58.29713 | 33 ft | 20 kts | 7° |
| 2026-04-18 02:56 | 23.60714 | 58.29712 | 33 ft | 0 kts | 358° |